Time;durP1;ratioP1;P1;durP2;ratioP2;P2;SDS_P1;SDS_P2;PMS_P1;PMS_P2;Temp;Humidity;BMP_temperature;BMP_pressure;BME280_temperature;BME280_humidity;BME280_pressure;Samples;Min_cycle;Max_cycle;Signal;HPM_P1;HPM_P2
2021/11/11 00:02:16;;;;;;;23.17;18.05;;;17.30;83.20;;;;;;4191392;28;20414;-59
2021/11/11 00:04:39;;;;;;;22.23;15.57;;;17.30;82.80;;;;;;4191844;28;20059;-59
2021/11/11 00:07:03;;;;;;;24.77;15.98;;;17.30;83.00;;;;;;4189971;28;20147;-56
2021/11/11 00:09:25;;;;;;;19.15;15.57;;;17.30;82.90;;;;;;4192006;28;20076;-58
2021/11/11 00:11:47;;;;;;;25.77;15.80;;;17.30;82.90;;;;;;4191663;28;20052;-58
2021/11/11 00:14:09;;;;;;;21.88;16.15;;;17.30;82.70;;;;;;4192071;28;20122;-59
2021/11/11 00:16:32;;;;;;;20.83;16.60;;;17.30;82.20;;;;;;4190125;28;20232;-58
2021/11/11 00:18:56;;;;;;;20.33;16.27;;;17.40;82.20;;;;;;4191395;28;20052;-59
2021/11/11 00:21:18;;;;;;;23.88;16.17;;;17.50;81.80;;;;;;4184190;28;20048;-56
2021/11/11 00:23:42;;;;;;;21.27;15.68;;;17.40;81.30;;;;;;4191781;28;20052;-58
2021/11/11 00:26:04;;;;;;;23.38;15.77;;;17.40;81.30;;;;;;4191868;28;20461;-57
2021/11/11 00:28:26;;;;;;;21.98;15.85;;;17.50;81.60;;;;;;4191273;28;20068;-55
2021/11/11 00:30:48;;;;;;;23.35;16.95;;;17.40;81.70;;;;;;4190109;28;20102;-57
2021/11/11 00:33:12;;;;;;;20.63;15.32;;;17.30;81.90;;;;;;4191124;28;20051;-58
2021/11/11 00:35:34;;;;;;;23.52;16.38;;;17.30;82.30;;;;;;4190346;28;20503;-59
2021/11/11 00:37:59;;;;;;;20.90;16.33;;;17.30;82.40;;;;;;4189876;28;20581;-58
2021/11/11 00:40:21;;;;;;;24.77;15.43;;;17.30;82.40;;;;;;4191256;28;20776;-58
2021/11/11 00:42:45;;;;;;;19.85;15.73;;;17.30;82.50;;;;;;4191645;28;20747;-58
2021/11/11 00:45:08;;;;;;;23.98;16.48;;;17.30;82.40;;;;;;4190138;28;20484;-59
2021/11/11 00:47:31;;;;;;;21.77;15.73;;;17.30;82.50;;;;;;4191103;28;20441;-59
2021/11/11 00:49:54;;;;;;;19.92;15.45;;;17.30;83.60;;;;;;4174978;28;20057;-59
2021/11/11 00:52:16;;;;;;;20.75;15.88;;;17.20;82.70;;;;;;4174823;28;20096;-58
2021/11/11 00:54:40;;;;;;;20.08;14.88;;;17.20;82.80;;;;;;4174695;28;20037;-59
2021/11/11 00:57:07;;;;;;;24.23;15.95;;;17.10;83.10;;;;;;4173533;28;20154;-57
2021/11/11 00:59:29;;;;;;;20.73;14.60;;;17.10;83.10;;;;;;4174915;28;20052;-58
2021/11/11 01:01:52;;;;;;;22.35;15.48;;;17.10;83.40;;;;;;4189078;28;20083;-57
2021/11/11 01:04:14;;;;;;;22.05;15.93;;;17.10;83.20;;;;;;4191025;28;20041;-58
2021/11/11 01:06:38;;;;;;;21.25;14.63;;;17.10;83.30;;;;;;4189845;28;20082;-58
2021/11/11 01:09:00;;;;;;;18.58;15.30;;;17.20;84.00;;;;;;4191079;28;20440;-59
2021/11/11 01:11:23;;;;;;;24.08;15.88;;;17.30;83.10;;;;;;4191232;28;20048;-58
2021/11/11 01:13:45;;;;;;;20.73;15.15;;;17.30;82.60;;;;;;4189497;28;20052;-54
2021/11/11 01:16:08;;;;;;;21.58;15.15;;;17.30;82.70;;;;;;4190920;28;20052;-58
2021/11/11 01:18:31;;;;;;;25.15;15.82;;;17.30;82.60;;;;;;4189335;28;20048;-58
2021/11/11 01:20:53;;;;;;;22.98;15.07;;;17.30;82.60;;;;;;4191008;28;20072;-58
2021/11/11 01:23:16;;;;;;;20.48;15.25;;;17.30;82.70;;;;;;4191123;28;20048;-58
2021/11/11 01:25:40;;;;;;;21.73;14.63;;;17.20;82.60;;;;;;4191166;28;20049;-56
2021/11/11 01:28:02;;;;;;;19.38;14.30;;;17.20;83.00;;;;;;4190248;28;20528;-58
2021/11/11 01:30:27;;;;;;;22.75;14.77;;;17.20;83.60;;;;;;4189709;28;20094;-58
2021/11/11 01:32:56;;;;;;;22.00;15.32;;;17.20;83.80;;;;;;4189496;28;20053;-56
2021/11/11 01:35:19;;;;;;;20.40;14.77;;;17.10;83.60;;;;;;4189736;28;20053;-57
2021/11/11 01:37:44;;;;;;;24.02;13.90;;;17.20;83.90;;;;;;4189318;28;20060;-57
2021/11/11 01:40:10;;;;;;;20.13;13.90;;;17.20;83.60;;;;;;4189160;28;20442;-60
2021/11/11 01:42:42;;;;;;;22.55;14.60;;;17.20;83.30;;;;;;4189204;28;20048;-58
2021/11/11 01:45:04;;;;;;;20.75;13.85;;;17.20;82.80;;;;;;4191817;28;20064;-61
2021/11/11 01:47:28;;;;;;;16.27;11.60;;;17.20;83.40;;;;;;4192239;28;20052;-56
2021/11/11 01:49:50;;;;;;;15.23;12.68;;;17.10;83.20;;;;;;4192704;28;20056;-58
2021/11/11 01:52:14;;;;;;;22.95;14.77;;;17.10;83.20;;;;;;4192674;28;20426;-57
2021/11/11 01:54:38;;;;;;;20.27;13.40;;;17.10;83.50;;;;;;4175745;28;20384;-58
2021/11/11 01:57:01;;;;;;;15.73;11.45;;;17.10;83.90;;;;;;4188747;28;20051;-58
2021/11/11 01:59:25;;;;;;;17.10;12.48;;;17.00;83.80;;;;;;4193888;28;20387;-56
2021/11/11 02:01:50;;;;;;;18.48;12.60;;;17.00;84.00;;;;;;4192632;28;20430;-57
2021/11/11 02:04:14;;;;;;;23.98;13.85;;;17.00;84.00;;;;;;4192315;28;20048;-57
2021/11/11 02:06:44;;;;;;;24.60;13.23;;;17.10;83.90;;;;;;4175930;28;20491;-57
2021/11/11 02:09:11;;;;;;;23.10;14.23;;;17.10;83.50;;;;;;4175145;28;20102;-56
2021/11/11 02:11:45;;;;;;;18.48;13.13;;;17.20;83.50;;;;;;4178786;28;20514;-57
2021/11/11 02:14:09;;;;;;;14.43;12.00;;;17.20;83.20;;;;;;4193383;28;20040;-56
2021/11/11 02:16:34;;;;;;;18.90;13.13;;;17.20;83.20;;;;;;4192234;28;20040;-57
2021/11/11 02:18:57;;;;;;;18.95;13.27;;;17.10;83.20;;;;;;4191847;28;20102;-56
2021/11/11 02:21:21;;;;;;;16.58;11.55;;;17.10;83.60;;;;;;4191861;28;20040;-57
2021/11/11 02:23:52;;;;;;;20.25;13.18;;;17.10;83.20;;;;;;4175251;28;20041;-58
2021/11/11 02:26:40;;;;;;;18.00;12.30;;;17.10;83.60;;;;;;4176856;28;20041;-59
2021/11/11 02:29:14;;;;;;;21.10;13.18;;;17.00;83.80;;;;;;4175349;28;20056;-58
2021/11/11 02:31:36;;;;;;;15.88;12.52;;;17.00;84.00;;;;;;4176703;28;20464;-59
2021/11/11 02:33:58;;;;;;;17.67;12.10;;;17.00;84.00;;;;;;4177990;28;20041;-59
2021/11/11 02:36:35;;;;;;;19.00;13.77;;;17.10;83.90;;;;;;4175418;28;20604;-56
2021/11/11 02:38:58;;;;;;;19.42;12.32;;;17.10;83.50;;;;;;4176727;28;20041;-57
2021/11/11 02:41:20;;;;;;;19.20;12.02;;;17.10;83.80;;;;;;4176646;28;20079;-55
2021/11/11 02:43:43;;;;;;;19.17;12.05;;;17.10;83.50;;;;;;4175077;28;20167;-59
2021/11/11 02:46:09;;;;;;;16.30;12.00;;;17.10;83.60;;;;;;4175359;28;20056;-56
2021/11/11 02:48:31;;;;;;;17.60;12.55;;;17.10;83.70;;;;;;4175308;28;20454;-57
2021/11/11 02:50:55;;;;;;;19.42;12.63;;;17.10;83.80;;;;;;4190785;28;20060;-58
2021/11/11 02:53:18;;;;;;;20.20;12.48;;;17.00;83.70;;;;;;4191428;28;20091;-57
2021/11/11 02:55:44;;;;;;;16.05;12.05;;;17.00;83.80;;;;;;4192793;28;20422;-56
2021/11/11 02:58:07;;;;;;;19.65;11.57;;;17.00;84.10;;;;;;4190959;28;20048;-57
2021/11/11 03:00:33;;;;;;;14.48;11.02;;;17.00;84.00;;;;;;4190931;28;20141;-57
2021/11/11 03:02:56;;;;;;;19.30;11.38;;;17.10;84.10;;;;;;4174521;28;20056;-57
2021/11/11 03:05:26;;;;;;;16.42;11.50;;;17.10;83.60;;;;;;4174413;28;20049;-61
2021/11/11 03:07:49;;;;;;;19.65;12.48;;;17.10;83.50;;;;;;4175064;28;20538;-57
2021/11/11 03:10:16;;;;;;;16.63;11.70;;;17.20;83.10;;;;;;4185080;28;20063;-57
2021/11/11 03:12:40;;;;;;;16.70;11.70;;;17.20;82.70;;;;;;4190959;28;20052;-56
2021/11/11 03:15:04;;;;;;;13.75;11.00;;;17.20;83.30;;;;;;4191167;28;20771;-57
2021/11/11 03:17:27;;;;;;;18.20;12.10;;;17.10;83.30;;;;;;4191094;28;20052;-57
2021/11/11 03:19:49;;;;;;;21.63;13.15;;;17.10;83.70;;;;;;4192257;28;20114;-57
2021/11/11 03:22:14;;;;;;;17.02;12.40;;;17.10;83.80;;;;;;4191807;28;20452;-55
2021/11/11 03:24:39;;;;;;;17.30;12.55;;;17.00;83.80;;;;;;4191254;28;20044;-57
2021/11/11 03:27:03;;;;;;;14.20;11.10;;;17.00;84.10;;;;;;4190099;28;20048;-59
2021/11/11 03:29:26;;;;;;;18.92;12.23;;;17.00;84.00;;;;;;4192328;28;20048;-55
2021/11/11 03:31:48;;;;;;;18.08;11.95;;;17.10;84.00;;;;;;4190194;28;20053;-57
2021/11/11 03:34:10;;;;;;;15.82;12.10;;;17.10;83.90;;;;;;4192551;28;20068;-58
2021/11/11 03:36:33;;;;;;;20.67;12.23;;;17.10;83.70;;;;;;4191103;28;20169;-56
2021/11/11 03:38:57;;;;;;;17.45;12.40;;;17.10;83.80;;;;;;4190449;28;20048;-57
2021/11/11 03:41:19;;;;;;;22.13;13.30;;;17.10;83.60;;;;;;4188985;28;20591;-57
2021/11/11 03:43:43;;;;;;;22.65;13.70;;;17.00;83.80;;;;;;4191019;28;20049;-55
2021/11/11 03:46:11;;;;;;;16.85;11.77;;;17.00;83.80;;;;;;4190470;28;20059;-57
2021/11/11 03:48:35;;;;;;;16.65;11.88;;;17.10;83.90;;;;;;4190649;28;20498;-56
2021/11/11 03:50:58;;;;;;;17.77;12.90;;;17.10;83.90;;;;;;4190572;28;20121;-57
2021/11/11 03:53:20;;;;;;;17.20;12.63;;;17.20;83.90;;;;;;4190330;28;20051;-57
2021/11/11 03:55:43;;;;;;;16.00;11.98;;;17.20;83.30;;;;;;4191909;28;20048;-57
2021/11/11 03:58:10;;;;;;;18.05;12.68;;;17.20;83.20;;;;;;4190786;28;20072;-57
2021/11/11 04:00:34;;;;;;;20.35;12.52;;;17.20;83.10;;;;;;4190265;28;20445;-56
2021/11/11 04:02:58;;;;;;;18.38;13.30;;;17.10;82.80;;;;;;4190460;28;20056;-55
2021/11/11 04:05:21;;;;;;;19.50;12.57;;;17.20;83.30;;;;;;4190174;28;20044;-56
2021/11/11 04:07:50;;;;;;;17.50;12.70;;;17.10;83.50;;;;;;4189528;28;20044;-56
2021/11/11 04:10:12;;;;;;;22.55;14.00;;;17.10;83.50;;;;;;4189950;28;20137;-56
2021/11/11 04:12:59;;;;;;;21.92;13.52;;;17.10;84.00;;;;;;4190258;28;20068;-57
2021/11/11 04:15:21;;;;;;;17.88;13.27;;;17.00;84.10;;;;;;4191522;28;20045;-57
2021/11/11 04:17:45;;;;;;;22.50;13.38;;;16.90;84.30;;;;;;4190041;28;20126;-55
2021/11/11 04:20:09;;;;;;;19.15;14.70;;;16.90;84.10;;;;;;4189894;28;20059;-56
2021/11/11 04:22:34;;;;;;;20.92;12.95;;;17.00;84.20;;;;;;4190003;28;20129;-56
2021/11/11 04:24:58;;;;;;;21.40;14.55;;;17.00;84.40;;;;;;4190061;28;20484;-56
2021/11/11 04:27:24;;;;;;;20.98;13.93;;;17.10;84.10;;;;;;4190048;28;20037;-57
2021/11/11 04:29:55;;;;;;;20.42;13.60;;;17.10;83.80;;;;;;4190905;28;20498;-57
2021/11/11 04:32:18;;;;;;;15.43;12.73;;;17.20;83.40;;;;;;4189665;28;20410;-58
2021/11/11 04:34:44;;;;;;;22.23;14.95;;;17.20;83.30;;;;;;4190015;28;20059;-57
2021/11/11 04:40:15;;;;;;;19.83;12.95;;;17.20;83.60;;;;;;4189561;28;20056;-54
2021/11/11 04:48:15;;;;;;;18.13;14.00;;;17.10;84.10;;;;;;4185879;28;20494;-57
2021/11/11 05:01:23;;;;;;;20.42;14.05;;;17.10;84.40;;;;;;4189029;28;20052;-54
2021/11/11 05:03:46;;;;;;;22.17;14.57;;;17.00;84.40;;;;;;4189753;28;20056;-56
2021/11/11 05:06:11;;;;;;;18.63;14.80;;;17.00;84.20;;;;;;4189832;28;20052;-58
2021/11/11 05:08:34;;;;;;;17.17;13.25;;;17.00;84.20;;;;;;4189477;28;20052;-56
2021/11/11 05:10:57;;;;;;;20.98;14.63;;;16.90;84.30;;;;;;4189588;28;20142;-56
2021/11/11 05:13:19;;;;;;;21.98;14.77;;;16.90;84.50;;;;;;4178108;28;20044;-57
2021/11/11 05:15:42;;;;;;;21.85;15.55;;;16.90;84.60;;;;;;4189008;28;20445;-57
2021/11/11 05:18:04;;;;;;;21.52;16.02;;;16.90;84.90;;;;;;4189809;28;20045;-57
2021/11/11 05:20:29;;;;;;;25.90;16.02;;;16.90;84.70;;;;;;4189554;28;20477;-57
2021/11/11 05:22:54;;;;;;;25.73;17.08;;;17.00;84.60;;;;;;4189866;28;20048;-55
2021/11/11 05:25:17;;;;;;;20.25;15.88;;;17.10;84.40;;;;;;4191430;28;20778;-57
2021/11/11 05:27:42;;;;;;;25.83;15.75;;;17.10;84.20;;;;;;4189699;28;20045;-57
2021/11/11 05:30:05;;;;;;;20.00;15.52;;;17.10;84.00;;;;;;4190769;28;20068;-57
2021/11/11 05:32:27;;;;;;;22.77;17.33;;;17.10;83.80;;;;;;4189399;28;20059;-57
2021/11/11 05:34:49;;;;;;;24.02;16.40;;;17.10;83.90;;;;;;4190578;28;20498;-56
2021/11/11 05:37:12;;;;;;;22.38;16.70;;;17.10;84.20;;;;;;4190897;28;20072;-57
2021/11/11 05:39:36;;;;;;;24.17;17.63;;;17.10;85.20;;;;;;4189112;28;20481;-54
2021/11/11 05:41:58;;;;;;;23.83;16.67;;;17.00;84.20;;;;;;4189646;28;20418;-57
2021/11/11 05:44:21;;;;;;;27.33;18.88;;;17.00;84.40;;;;;;4189572;28;20526;-56
2021/11/11 05:46:42;;;;;;;18.08;14.70;;;16.90;85.50;;;;;;4189258;28;20533;-55
2021/11/11 05:49:05;;;;;;;22.05;16.85;;;16.90;84.70;;;;;;4189033;28;20061;-58
2021/11/11 05:51:28;;;;;;;21.80;16.77;;;16.90;84.90;;;;;;4189319;28;20048;-56
2021/11/11 05:53:50;;;;;;;23.60;17.80;;;16.90;85.00;;;;;;4189495;28;20049;-57
2021/11/11 05:56:14;;;;;;;24.05;19.00;;;16.90;85.10;;;;;;4189453;28;20048;-59
2021/11/11 05:58:37;;;;;;;24.23;18.30;;;16.90;85.00;;;;;;4189096;28;20041;-58
2021/11/11 06:00:59;;;;;;;24.00;19.17;;;17.00;85.00;;;;;;4189057;28;20115;-55
2021/11/11 06:03:30;;;;;;;23.67;20.05;;;17.00;84.60;;;;;;4188975;28;20549;-55
2021/11/11 06:05:55;;;;;;;19.50;16.30;;;17.00;84.70;;;;;;4189315;28;20074;-57
2021/11/11 06:08:21;;;;;;;24.20;18.95;;;17.00;85.00;;;;;;4189293;28;20049;-57
2021/11/11 06:10:43;;;;;;;29.70;20.92;;;17.00;84.70;;;;;;4173974;28;20075;-57
2021/11/11 06:13:06;;;;;;;25.90;19.88;;;17.10;84.60;;;;;;4174243;28;20067;-57
2021/11/11 06:15:29;;;;;;;28.08;20.58;;;17.10;84.20;;;;;;4172908;28;20415;-57
2021/11/11 06:17:53;;;;;;;24.45;18.98;;;17.20;84.30;;;;;;4174314;28;20466;-57
2021/11/11 06:20:19;;;;;;;27.38;20.85;;;17.20;84.00;;;;;;4182931;28;20525;-57
2021/11/11 06:22:45;;;;;;;26.88;20.90;;;17.20;83.90;;;;;;4189455;28;20761;-56
2021/11/11 06:25:10;;;;;;;26.67;20.23;;;17.20;83.90;;;;;;4188832;28;20052;-55
2021/11/11 06:27:33;;;;;;;28.30;21.42;;;17.10;84.00;;;;;;4188794;28;20469;-56
2021/11/11 06:29:56;;;;;;;28.85;22.50;;;17.10;85.00;;;;;;4189248;28;20049;-56
2021/11/11 06:32:21;;;;;;;29.73;22.33;;;17.10;84.10;;;;;;4173774;28;20422;-58
2021/11/11 06:35:04;;;;;;;25.63;21.83;;;17.00;84.40;;;;;;4175802;28;20045;-57
2021/11/11 06:37:27;;;;;;;27.70;21.23;;;17.00;84.50;;;;;;4176526;28;20049;-57
2021/11/11 06:39:49;;;;;;;26.80;22.23;;;16.90;84.70;;;;;;4192881;28;20612;-57
2021/11/11 06:42:11;;;;;;;28.45;23.25;;;16.90;84.80;;;;;;4193338;28;20406;-59
2021/11/11 06:44:33;;;;;;;26.75;22.58;;;16.90;85.10;;;;;;4193391;28;20106;-57
2021/11/11 06:46:57;;;;;;;28.35;23.25;;;16.90;85.30;;;;;;4192802;28;20057;-56
2021/11/11 06:49:20;;;;;;;28.20;22.60;;;16.90;85.10;;;;;;4203538;28;20568;-57
2021/11/11 06:51:42;;;;;;;27.48;23.05;;;17.00;85.60;;;;;;4193273;28;20045;-57
2021/11/11 06:54:04;;;;;;;25.48;17.95;;;17.10;85.90;;;;;;4192950;28;20056;-57
2021/11/11 06:56:26;;;;;;;25.75;21.75;;;17.20;85.60;;;;;;4192998;28;20041;-57
2021/11/11 06:58:48;;;;;;;22.63;20.13;;;17.30;84.70;;;;;;4192923;28;20052;-58
2021/11/11 07:01:10;;;;;;;36.50;21.90;;;17.50;83.80;;;;;;4186116;28;20048;-58
2021/11/11 07:03:35;;;;;;;29.70;24.13;;;17.50;83.10;;;;;;4191462;28;20098;-57
2021/11/11 07:05:58;;;;;;;25.98;20.38;;;17.50;82.40;;;;;;4191524;28;20037;-57
2021/11/11 07:08:20;;;;;;;31.95;23.45;;;17.50;81.80;;;;;;4192637;28;20125;-57
2021/11/11 07:10:45;;;;;;;28.25;20.67;;;17.50;81.50;;;;;;4192439;28;20102;-56
2021/11/11 07:13:07;;;;;;;27.65;22.13;;;17.50;81.80;;;;;;4191736;28;20150;-56
2021/11/11 07:15:29;;;;;;;24.35;21.75;;;17.40;81.70;;;;;;4190914;28;20399;-59
2021/11/11 07:17:51;;;;;;;21.77;19.05;;;17.40;81.80;;;;;;4192444;28;20080;-56
2021/11/11 07:20:16;;;;;;;22.30;19.88;;;17.30;82.00;;;;;;4192349;28;20045;-58
2021/11/11 07:22:42;;;;;;;23.73;20.40;;;17.30;82.20;;;;;;4192619;28;20045;-56
2021/11/11 07:25:06;;;;;;;26.10;21.10;;;17.20;82.20;;;;;;4191014;28;20049;-57
2021/11/11 07:27:30;;;;;;;23.58;20.05;;;17.10;82.30;;;;;;4192054;28;20037;-57
2021/11/11 07:29:54;;;;;;;22.02;19.75;;;17.10;82.40;;;;;;4192681;28;20041;-57
2021/11/11 07:32:17;;;;;;;21.88;19.30;;;17.00;82.60;;;;;;4192556;28;20040;-56
2021/11/11 07:34:39;;;;;;;25.15;20.50;;;17.00;83.00;;;;;;4192447;28;20071;-57
2021/11/11 07:37:03;;;;;;;24.42;20.35;;;16.90;83.00;;;;;;4191477;28;20160;-57
2021/11/11 07:39:26;;;;;;;20.38;17.38;;;16.90;83.10;;;;;;4192406;28;20140;-53
2021/11/11 07:41:49;;;;;;;23.55;19.48;;;16.80;83.40;;;;;;4192361;28;20060;-57
2021/11/11 07:44:15;;;;;;;23.58;19.23;;;16.70;83.50;;;;;;4190407;28;20049;-57
2021/11/11 07:46:37;;;;;;;22.45;18.85;;;16.70;83.50;;;;;;4192410;28;20411;-56
2021/11/11 07:49:00;;;;;;;22.25;19.27;;;16.60;83.60;;;;;;4191799;28;20131;-56
2021/11/11 07:51:22;;;;;;;23.63;20.67;;;16.70;84.00;;;;;;4175640;28;20084;-56
2021/11/11 07:53:46;;;;;;;25.70;20.30;;;16.70;83.60;;;;;;4179557;28;20076;-58
2021/11/11 07:56:08;;;;;;;23.80;19.92;;;16.90;83.10;;;;;;4191732;28;20055;-57
2021/11/11 07:58:31;;;;;;;22.92;19.08;;;17.20;82.30;;;;;;4191213;28;20044;-57
2021/11/11 08:00:55;;;;;;;24.95;20.85;;;17.50;80.70;;;;;;4189590;28;20083;-58
2021/11/11 08:03:17;;;;;;;22.15;18.90;;;17.90;79.00;;;;;;4191404;28;20040;-57
2021/11/11 08:05:40;;;;;;;22.45;18.30;;;18.30;76.90;;;;;;4190202;28;20048;-56
2021/11/11 08:08:03;;;;;;;24.58;19.45;;;18.70;75.00;;;;;;4188727;28;20037;-56
2021/11/11 08:10:26;;;;;;;24.10;20.10;;;19.00;73.20;;;;;;4190428;28;20045;-56
2021/11/11 08:12:49;;;;;;;23.88;19.55;;;19.30;71.90;;;;;;4191747;28;20137;-57
2021/11/11 08:15:11;;;;;;;22.67;18.33;;;19.40;70.90;;;;;;4191803;28;20048;-56
2021/11/11 08:17:33;;;;;;;25.92;19.92;;;19.50;70.30;;;;;;4190974;28;20048;-56
2021/11/11 08:19:56;;;;;;;24.35;20.38;;;19.40;70.10;;;;;;4191357;28;20115;-58
2021/11/11 08:22:18;;;;;;;25.55;20.70;;;19.30;70.40;;;;;;4191525;28;20048;-56
2021/11/11 08:24:43;;;;;;;19.70;16.45;;;19.20;70.70;;;;;;4174924;28;20048;-55
2021/11/11 08:27:08;;;;;;;24.52;19.15;;;19.10;71.60;;;;;;4188717;28;20056;-56
2021/11/11 08:29:30;;;;;;;22.05;18.63;;;19.00;72.20;;;;;;4191056;28;20054;-58
2021/11/11 08:31:52;;;;;;;22.27;18.17;;;18.90;72.50;;;;;;4182897;28;20195;-56
2021/11/11 08:34:14;;;;;;;25.95;20.80;;;18.90;72.40;;;;;;4190902;28;20521;-56
2021/11/11 08:36:37;;;;;;;23.40;17.38;;;18.90;72.10;;;;;;4191611;28;20770;-56
2021/11/11 08:38:59;;;;;;;28.10;21.45;;;19.00;72.00;;;;;;4190948;28;20080;-56
2021/11/11 08:41:22;;;;;;;25.85;21.08;;;19.10;71.40;;;;;;4188806;28;20052;-55
2021/11/11 08:43:47;;;;;;;25.88;19.92;;;19.20;71.10;;;;;;4190062;28;20064;-56
2021/11/11 08:46:09;;;;;;;23.38;20.27;;;19.20;71.00;;;;;;4188418;28;20048;-56
2021/11/11 08:48:31;;;;;;;26.73;20.60;;;19.10;72.10;;;;;;4189972;28;20060;-55
2021/11/11 08:50:55;;;;;;;22.63;19.70;;;19.00;71.50;;;;;;4190525;28;20131;-58
